Time;durP1;ratioP1;P1;durP2;ratioP2;P2;SDS_P1;SDS_P2;PMS_P1;PMS_P2;Temp;Humidity;BMP_temperature;BMP_pressure;BME280_temperature;BME280_humidity;BME280_pressure;Samples;Min_cycle;Max_cycle;Signal;HPM_P1;HPM_P2
2023/07/22 00:00:35;;;;;;;8.93;5.43;;;14.00;99.90;;;;;;5081242;28;20263;-67
2023/07/22 00:03:02;;;;;;;6.63;5.33;;;13.90;99.90;;;;;;5083578;28;20585;-68
2023/07/22 00:05:29;;;;;;;8.07;5.87;;;13.90;99.90;;;;;;5075649;28;20209;-68
2023/07/22 00:07:56;;;;;;;6.20;5.40;;;14.00;99.90;;;;;;5072835;28;20192;-68
2023/07/22 00:10:23;;;;;;;6.63;5.63;;;13.90;99.90;;;;;;5066733;28;20222;-68
2023/07/22 00:12:51;;;;;;;5.63;5.10;;;13.90;99.90;;;;;;5079736;28;20280;-68
2023/07/22 00:15:20;;;;;;;6.27;5.60;;;13.90;99.90;;;;;;5085547;28;20218;-68
2023/07/22 00:17:47;;;;;;;7.97;6.17;;;13.90;99.90;;;;;;5072090;28;20285;-69
2023/07/22 00:20:15;;;;;;;8.47;6.33;;;13.80;99.90;;;;;;5076824;28;20693;-68
2023/07/22 00:22:42;;;;;;;8.77;5.70;;;13.80;99.90;;;;;;5077339;28;20198;-68
2023/07/22 00:25:11;;;;;;;9.77;6.17;;;13.80;99.90;;;;;;5085035;28;20797;-68
2023/07/22 00:27:38;;;;;;;7.00;5.57;;;13.90;99.90;;;;;;5064406;28;20202;-67
2023/07/22 00:30:08;;;;;;;8.47;6.03;;;13.80;99.90;;;;;;5083767;28;20222;-68
2023/07/22 00:32:36;;;;;;;8.93;6.50;;;13.80;99.90;;;;;;5078058;28;20190;-67
2023/07/22 00:35:04;;;;;;;7.83;5.80;;;13.80;99.90;;;;;;5075092;28;20190;-67
2023/07/22 00:37:31;;;;;;;8.03;5.63;;;13.80;99.90;;;;;;5082090;28;20213;-66
2023/07/22 00:39:58;;;;;;;7.60;6.03;;;13.90;99.90;;;;;;5082443;28;20311;-68
2023/07/22 00:42:25;;;;;;;10.10;6.60;;;13.80;99.90;;;;;;5055338;28;20202;-67
2023/07/22 00:44:52;;;;;;;6.87;6.10;;;13.80;99.90;;;;;;5082479;28;20208;-67
2023/07/22 00:47:21;;;;;;;7.93;6.30;;;13.90;99.90;;;;;;5066623;28;20209;-67
2023/07/22 00:49:50;;;;;;;7.90;6.03;;;13.80;99.90;;;;;;5076387;28;20742;-67
2023/07/22 00:52:17;;;;;;;6.40;5.50;;;13.80;99.90;;;;;;5080421;28;20182;-67
2023/07/22 00:54:44;;;;;;;8.23;6.27;;;13.80;99.90;;;;;;5083895;28;20190;-67
2023/07/22 00:57:13;;;;;;;8.23;6.33;;;13.80;99.90;;;;;;5062226;28;20762;-68
2023/07/22 00:59:41;;;;;;;6.97;6.27;;;13.80;99.90;;;;;;5080376;28;20626;-67
2023/07/22 01:02:09;;;;;;;6.37;5.70;;;13.80;99.90;;;;;;5066716;28;20216;-66
2023/07/22 01:04:38;;;;;;;10.83;6.03;;;13.80;99.90;;;;;;5077751;28;20193;-67
2023/07/22 01:07:06;;;;;;;8.17;6.37;;;13.80;99.90;;;;;;5080326;28;20190;-66
2023/07/22 01:09:37;;;;;;;8.63;6.20;;;13.70;99.90;;;;;;5082197;28;20757;-67
2023/07/22 01:12:05;;;;;;;9.13;6.83;;;13.70;99.90;;;;;;5063022;28;20230;-66
2023/07/22 01:14:33;;;;;;;8.57;6.30;;;13.70;99.90;;;;;;5079029;28;20904;-66
2023/07/22 01:17:01;;;;;;;7.87;6.10;;;13.70;99.90;;;;;;5071221;28;20214;-67
2023/07/22 01:19:29;;;;;;;8.07;5.90;;;13.70;99.90;;;;;;5077491;28;20199;-67
2023/07/22 01:21:58;;;;;;;10.07;7.30;;;13.70;99.90;;;;;;5081858;28;20545;-66
2023/07/22 01:24:26;;;;;;;12.10;6.57;;;13.70;99.90;;;;;;5079855;28;20194;-67
2023/07/22 01:26:53;;;;;;;10.00;6.57;;;13.70;99.90;;;;;;5078580;28;20183;-67
2023/07/22 01:29:20;;;;;;;9.43;6.70;;;13.70;99.90;;;;;;5059036;28;20305;-67
2023/07/22 01:31:53;;;;;;;9.67;6.67;;;13.70;99.90;;;;;;5079065;28;20217;-67
2023/07/22 01:34:20;;;;;;;8.40;6.90;;;13.60;99.90;;;;;;5074016;28;20224;-67
2023/07/22 01:36:48;;;;;;;8.80;6.63;;;13.60;99.90;;;;;;5083634;28;20626;-68
2023/07/22 01:39:15;;;;;;;10.37;7.23;;;13.60;99.90;;;;;;5078300;28;20186;-68
2023/07/22 01:41:44;;;;;;;8.00;7.07;;;13.60;99.90;;;;;;5078785;28;20230;-67
2023/07/22 01:44:10;;;;;;;9.57;6.57;;;13.60;99.90;;;;;;5071237;28;20213;-67
2023/07/22 01:46:37;;;;;;;9.33;7.03;;;13.60;99.90;;;;;;5080906;28;20209;-68
2023/07/22 01:49:08;;;;;;;12.43;7.20;;;13.60;99.90;;;;;;5073389;28;20674;-67
2023/07/22 01:51:37;;;;;;;10.33;6.83;;;13.60;99.90;;;;;;5080303;28;20217;-68
2023/07/22 01:54:04;;;;;;;10.33;6.80;;;13.50;99.90;;;;;;5079661;28;20660;-67
2023/07/22 01:56:31;;;;;;;8.87;6.70;;;13.50;99.90;;;;;;5075787;28;20225;-67
2023/07/22 01:58:59;;;;;;;8.67;6.40;;;13.50;99.90;;;;;;5056624;28;20202;-67
2023/07/22 02:01:28;;;;;;;9.03;6.90;;;13.50;99.90;;;;;;5080211;28;20482;-68
2023/07/22 02:03:55;;;;;;;9.60;6.43;;;13.40;99.90;;;;;;5075038;28;20213;-68
2023/07/22 02:06:22;;;;;;;8.20;6.80;;;13.40;99.90;;;;;;5079453;28;20927;-67
2023/07/22 02:08:49;;;;;;;10.90;5.90;;;13.30;99.90;;;;;;5080832;28;20186;-67
2023/07/22 02:11:17;;;;;;;13.57;6.83;;;13.30;99.90;;;;;;5070633;28;20201;-68
2023/07/22 02:13:44;;;;;;;7.17;6.33;;;13.30;99.90;;;;;;5062370;28;20298;-68
2023/07/22 02:16:12;;;;;;;12.77;6.20;;;13.30;99.90;;;;;;5077256;28;20721;-67
2023/07/22 02:18:39;;;;;;;10.30;6.47;;;13.20;99.90;;;;;;5072171;28;20226;-68
2023/07/22 02:21:07;;;;;;;8.53;6.03;;;13.20;99.90;;;;;;5078334;28;20249;-68
2023/07/22 02:23:34;;;;;;;12.13;6.60;;;13.20;99.90;;;;;;5077729;28;20669;-68
2023/07/22 02:26:02;;;;;;;9.70;5.93;;;13.20;99.90;;;;;;5074132;28;20182;-67
2023/07/22 02:28:28;;;;;;;6.87;5.63;;;13.20;99.90;;;;;;5080341;28;20258;-68
2023/07/22 02:30:55;;;;;;;8.90;6.30;;;13.20;99.90;;;;;;5063460;28;20227;-67
2023/07/22 02:33:24;;;;;;;8.77;5.87;;;13.20;99.90;;;;;;5081325;28;20185;-68
2023/07/22 02:35:52;;;;;;;7.80;6.20;;;13.20;99.90;;;;;;5077870;28;20251;-67
2023/07/22 02:38:19;;;;;;;7.00;5.47;;;13.30;99.90;;;;;;5077175;28;20210;-68
2023/07/22 02:40:46;;;;;;;9.47;5.93;;;13.30;99.90;;;;;;5083155;28;20206;-67
2023/07/22 02:43:13;;;;;;;7.47;5.37;;;13.30;99.90;;;;;;5081998;28;20275;-67
2023/07/22 02:45:40;;;;;;;12.50;6.60;;;13.20;99.90;;;;;;5071842;28;20636;-67
2023/07/22 02:48:07;;;;;;;8.60;5.40;;;13.20;99.90;;;;;;5102970;27;20190;-67
2023/07/22 02:50:36;;;;;;;9.87;5.87;;;13.20;99.90;;;;;;5073289;28;20233;-67
2023/07/22 02:53:03;;;;;;;8.83;5.60;;;13.10;99.90;;;;;;5075738;28;20255;-67
2023/07/22 02:55:30;;;;;;;8.13;5.23;;;13.10;99.90;;;;;;5081869;28;20190;-67
2023/07/22 02:57:58;;;;;;;7.87;6.03;;;13.10;99.90;;;;;;5086699;28;20214;-67
2023/07/22 03:00:24;;;;;;;7.97;5.83;;;13.10;99.90;;;;;;5066775;28;20218;-67
2023/07/22 03:02:53;;;;;;;15.77;6.47;;;13.10;99.90;;;;;;5086339;28;20200;-67
2023/07/22 03:05:21;;;;;;;7.77;6.00;;;13.10;99.90;;;;;;5074094;28;21020;-68
2023/07/22 03:07:49;;;;;;;15.30;6.23;;;13.20;99.90;;;;;;5077434;28;20186;-67
2023/07/22 03:10:16;;;;;;;8.27;5.83;;;13.10;99.90;;;;;;5082654;28;20206;-67
2023/07/22 03:12:43;;;;;;;10.87;5.67;;;13.10;99.90;;;;;;5086444;28;20291;-68
2023/07/22 03:15:12;;;;;;;11.90;5.73;;;13.00;99.90;;;;;;5065420;28;20202;-67
2023/07/22 03:17:41;;;;;;;8.23;5.93;;;13.00;99.90;;;;;;5085503;28;20206;-68
2023/07/22 03:20:14;;;;;;;10.90;5.43;;;13.00;99.90;;;;;;5074730;28;20225;-67
2023/07/22 03:22:41;;;;;;;9.37;6.07;;;13.00;99.90;;;;;;5073256;28;20230;-67
2023/07/22 03:25:10;;;;;;;11.00;5.73;;;13.00;99.90;;;;;;5075026;28;20224;-67
2023/07/22 03:27:37;;;;;;;9.33;5.87;;;13.00;99.90;;;;;;5085288;28;20560;-67
2023/07/22 03:30:07;;;;;;;7.80;5.80;;;13.00;99.90;;;;;;5080323;28;20322;-67
2023/07/22 03:32:34;;;;;;;7.93;6.10;;;13.00;99.90;;;;;;5067292;28;20213;-66
2023/07/22 03:35:02;;;;;;;8.77;5.53;;;13.00;99.90;;;;;;5073608;28;20201;-66
2023/07/22 03:37:29;;;;;;;8.37;6.17;;;13.00;99.90;;;;;;5070045;28;20218;-67
2023/07/22 03:39:56;;;;;;;7.87;6.10;;;13.00;99.90;;;;;;5082878;28;20222;-67
2023/07/22 03:42:25;;;;;;;9.80;5.60;;;12.90;99.90;;;;;;5084404;28;20182;-67
2023/07/22 03:44:52;;;;;;;8.17;5.33;;;12.90;99.90;;;;;;5083770;28;20190;-67
2023/07/22 03:47:20;;;;;;;10.17;6.03;;;12.90;99.90;;;;;;5061057;28;20718;-66
2023/07/22 03:49:46;;;;;;;9.40;5.97;;;13.00;99.90;;;;;;5078424;28;20217;-66
2023/07/22 03:52:18;;;;;;;11.93;5.83;;;12.90;99.90;;;;;;5079619;28;20201;-67
2023/07/22 03:54:45;;;;;;;10.43;5.77;;;12.90;99.90;;;;;;5075796;28;20194;-67
2023/07/22 03:57:12;;;;;;;8.13;6.30;;;12.90;99.90;;;;;;5085304;28;20198;-67
2023/07/22 03:59:41;;;;;;;11.63;6.20;;;12.90;99.90;;;;;;5075532;28;20234;-66
2023/07/22 04:02:08;;;;;;;8.70;5.67;;;12.90;99.90;;;;;;5076643;28;20194;-67
2023/07/22 04:04:35;;;;;;;13.93;5.70;;;12.90;99.90;;;;;;5060649;28;20210;-66
2023/07/22 04:07:02;;;;;;;9.77;6.37;;;12.90;99.90;;;;;;5085023;28;20753;-67
2023/07/22 04:09:29;;;;;;;9.87;6.00;;;12.90;99.90;;;;;;5075661;28;20271;-67
2023/07/22 04:11:55;;;;;;;14.13;6.10;;;12.90;99.90;;;;;;5082562;28;20191;-67
2023/07/22 04:14:22;;;;;;;7.93;6.20;;;12.90;99.90;;;;;;5074001;28;20735;-66
2023/07/22 04:16:52;;;;;;;11.77;6.63;;;12.90;99.90;;;;;;5074661;28;20186;-66
2023/07/22 04:19:19;;;;;;;7.43;5.90;;;12.90;99.90;;;;;;5064743;28;20228;-67
2023/07/22 04:21:46;;;;;;;12.33;6.63;;;13.00;99.90;;;;;;5080243;28;20182;-67
2023/07/22 04:24:13;;;;;;;10.67;5.67;;;13.00;99.90;;;;;;5073940;28;20255;-67
2023/07/22 04:26:42;;;;;;;10.47;6.77;;;13.00;99.90;;;;;;5081514;28;20636;-67
2023/07/22 04:29:09;;;;;;;11.17;5.73;;;13.00;99.90;;;;;;5067750;28;20602;-66
2023/07/22 04:31:37;;;;;;;8.57;6.60;;;13.00;99.90;;;;;;5073663;28;20222;-67
2023/07/22 04:34:06;;;;;;;11.07;5.70;;;13.00;99.90;;;;;;5066101;28;20255;-67
2023/07/22 04:36:33;;;;;;;10.70;6.07;;;13.00;99.90;;;;;;5081219;28;20194;-66
2023/07/22 04:39:00;;;;;;;10.37;6.60;;;13.10;99.90;;;;;;5083312;28;20229;-66
2023/07/22 04:41:27;;;;;;;9.37;6.00;;;13.10;99.90;;;;;;5068535;28;20383;-67
2023/07/22 04:43:54;;;;;;;10.73;6.23;;;13.20;99.90;;;;;;5075639;28;20178;-67
2023/07/22 04:46:21;;;;;;;9.07;5.60;;;13.20;99.90;;;;;;5073566;28;20209;-68
2023/07/22 04:48:47;;;;;;;12.70;5.80;;;13.10;99.90;;;;;;5065221;28;20214;-67
2023/07/22 04:51:16;;;;;;;12.40;6.23;;;13.10;99.90;;;;;;5081278;28;20221;-67
2023/07/22 04:53:42;;;;;;;8.83;6.43;;;13.20;99.90;;;;;;5079370;28;20235;-67
2023/07/22 04:56:09;;;;;;;7.90;5.77;;;13.20;99.90;;;;;;5071878;28;20207;-66
2023/07/22 04:58:36;;;;;;;10.07;5.63;;;13.20;99.90;;;;;;5072055;28;20206;-66
2023/07/22 05:01:03;;;;;;;9.60;5.47;;;13.20;99.90;;;;;;5083480;28;20210;-67
2023/07/22 05:03:30;;;;;;;9.93;6.10;;;13.30;99.90;;;;;;5070070;28;20184;-66
2023/07/22 05:05:57;;;;;;;10.57;6.03;;;13.30;99.90;;;;;;5079293;28;20194;-66
2023/07/22 05:08:25;;;;;;;6.40;5.60;;;13.30;99.90;;;;;;5082966;28;20575;-66
2023/07/22 05:10:53;;;;;;;9.70;5.73;;;13.30;99.90;;;;;;5066594;28;20237;-66
2023/07/22 05:13:20;;;;;;;11.53;6.20;;;13.40;99.90;;;;;;5076765;28;20222;-66
2023/07/22 05:15:47;;;;;;;9.30;6.20;;;13.40;99.90;;;;;;5072120;28;20202;-67
2023/07/22 05:18:14;;;;;;;12.10;6.30;;;13.40;99.90;;;;;;5079186;28;20607;-66
2023/07/22 05:20:40;;;;;;;8.77;5.30;;;13.50;99.90;;;;;;5051902;28;20535;-67
2023/07/22 05:23:07;;;;;;;12.27;5.90;;;13.50;99.90;;;;;;5078275;28;20259;-67
2023/07/22 05:25:35;;;;;;;7.60;5.63;;;13.60;99.90;;;;;;5069105;28;20784;-67
2023/07/22 05:28:02;;;;;;;7.87;6.03;;;13.70;99.90;;;;;;5072098;28;20580;-65
2023/07/22 05:30:29;;;;;;;10.17;5.43;;;13.60;99.90;;;;;;5083154;28;20224;-66
2023/07/22 05:32:56;;;;;;;8.40;5.57;;;13.60;99.90;;;;;;5075616;28;20646;-66
2023/07/22 05:35:23;;;;;;;7.63;5.37;;;13.70;99.90;;;;;;5064578;28;21242;-66
2023/07/22 05:37:50;;;;;;;7.93;5.23;;;13.70;99.90;;;;;;5077115;28;20244;-66
2023/07/22 05:40:17;;;;;;;9.30;5.43;;;13.70;99.90;;;;;;5073636;28;20271;-66
2023/07/22 05:42:45;;;;;;;9.17;5.13;;;13.70;99.90;;;;;;5075577;28;20302;-66
2023/07/22 05:45:15;;;;;;;7.00;5.00;;;13.70;99.90;;;;;;5080387;28;20182;-66
2023/07/22 05:47:42;;;;;;;6.63;4.97;;;13.70;99.90;;;;;;5077032;28;20209;-66
2023/07/22 05:50:09;;;;;;;6.80;5.00;;;13.70;99.90;;;;;;5054277;28;23778;-66
2023/07/22 05:52:36;;;;;;;8.53;5.07;;;13.80;99.90;;;;;;5075895;28;20202;-66
2023/07/22 05:55:04;;;;;;;7.03;4.83;;;13.80;99.90;;;;;;5073485;28;20190;-66
2023/07/22 05:57:31;;;;;;;8.33;5.07;;;13.80;99.90;;;;;;5074349;28;20265;-66
2023/07/22 05:59:59;;;;;;;11.47;5.67;;;13.90;99.90;;;;;;5077131;28;20213;-66
2023/07/22 06:02:26;;;;;;;7.37;4.47;;;14.00;99.90;;;;;;5068470;28;20255;-66
2023/07/22 06:04:54;;;;;;;7.03;4.63;;;14.00;99.90;;;;;;5079751;28;20709;-66
2023/07/22 06:07:21;;;;;;;6.13;3.97;;;14.00;99.90;;;;;;5052917;28;20218;-66
2023/07/22 06:09:48;;;;;;;8.43;4.20;;;14.10;99.90;;;;;;5081177;28;20240;-67
2023/07/22 06:12:15;;;;;;;7.57;5.00;;;14.10;99.90;;;;;;5075206;28;20243;-66
2023/07/22 06:14:42;;;;;;;6.33;4.07;;;14.20;99.90;;;;;;5086842;28;20201;-66
2023/07/22 06:17:10;;;;;;;4.57;3.97;;;14.30;99.90;;;;;;5075329;28;20996;-66
2023/07/22 06:19:37;;;;;;;8.10;4.23;;;14.30;99.90;;;;;;5077780;28;20222;-66
2023/07/22 06:22:04;;;;;;;7.30;3.70;;;14.40;99.90;;;;;;5056756;28;20637;-66
2023/07/22 06:24:31;;;;;;;6.00;3.70;;;14.50;99.90;;;;;;5085084;28;20197;-66
2023/07/22 06:26:58;;;;;;;5.27;3.47;;;14.60;99.90;;;;;;5084603;28;20194;-66
2023/07/22 06:29:25;;;;;;;6.43;4.03;;;14.60;99.90;;;;;;5076284;28;20261;-66
2023/07/22 06:31:51;;;;;;;4.90;3.43;;;14.70;99.90;;;;;;5082958;28;20182;-66
2023/07/22 06:34:20;;;;;;;4.17;3.40;;;14.70;99.90;;;;;;5072109;28;20826;-66
2023/07/22 06:36:46;;;;;;;3.83;2.77;;;14.80;99.90;;;;;;5060739;28;20287;-66
2023/07/22 06:39:13;;;;;;;3.80;2.60;;;14.80;99.90;;;;;;5085906;28;20210;-66
2023/07/22 06:41:40;;;;;;;3.47;2.40;;;14.90;99.90;;;;;;5067586;28;20225;-66
2023/07/22 06:44:07;;;;;;;3.40;2.97;;;15.00;99.90;;;;;;5067398;28;20191;-66
2023/07/22 06:46:34;;;;;;;5.57;2.73;;;15.00;99.90;;;;;;5068189;28;20232;-66
2023/07/22 06:49:00;;;;;;;7.63;3.27;;;15.10;99.90;;;;;;5063773;28;20201;-66
2023/07/22 06:51:29;;;;;;;5.77;2.50;;;15.10;99.90;;;;;;5079432;28;20290;-66
2023/07/22 06:53:55;;;;;;;4.87;2.50;;;15.20;99.90;;;;;;5061794;28;20232;-65
2023/07/22 06:56:22;;;;;;;3.80;2.53;;;15.20;99.90;;;;;;5081383;28;20254;-66
2023/07/22 06:58:51;;;;;;;5.03;2.70;;;15.30;99.90;;;;;;5080684;28;20239;-66
2023/07/22 07:01:17;;;;;;;3.63;2.30;;;15.40;99.90;;;;;;5057702;28;20221;-66
2023/07/22 07:03:44;;;;;;;5.23;2.70;;;15.40;99.90;;;;;;5067787;28;20217;-66
2023/07/22 07:06:12;;;;;;;3.20;2.57;;;15.40;99.90;;;;;;5076689;28;20182;-66
2023/07/22 07:08:40;;;;;;;3.93;3.00;;;15.50;99.90;;;;;;5064493;28;20211;-67
2023/07/22 07:11:07;;;;;;;4.13;2.70;;;15.60;99.90;;;;;;5079876;28;20245;-66
2023/07/22 07:13:34;;;;;;;3.73;2.70;;;15.60;99.90;;;;;;5081970;28;20198;-66
2023/07/22 07:16:22;;;;;;;2.80;2.20;;;15.60;99.90;;;;;;5064140;28;20198;-66
2023/07/22 07:18:49;;;;;;;4.80;2.13;;;15.60;99.90;;;;;;5068099;28;20259;-67
2023/07/22 07:21:16;;;;;;;4.23;2.23;;;15.70;99.90;;;;;;5071773;28;20619;-66
2023/07/22 07:23:44;;;;;;;3.20;1.90;;;15.70;99.90;;;;;;5059420;28;20197;-67
2023/07/22 07:26:11;;;;;;;4.60;2.00;;;15.80;99.90;;;;;;5078037;28;20190;-66
2023/07/22 07:28:38;;;;;;;1.83;1.73;;;15.90;99.90;;;;;;5077111;28;20703;-67
2023/07/22 07:31:05;;;;;;;1.80;1.70;;;15.90;99.90;;;;;;5061142;28;20221;-66
2023/07/22 07:33:32;;;;;;;2.03;1.60;;;16.00;99.90;;;;;;5082195;28;20730;-66
2023/07/22 07:35:59;;;;;;;4.33;1.87;;;16.10;99.90;;;;;;5071791;28;20210;-66
2023/07/22 07:38:26;;;;;;;4.13;1.40;;;16.10;99.90;;;;;;5070725;28;20216;-66
2023/07/22 07:40:58;;;;;;;3.03;1.63;;;16.30;99.90;;;;;;5061819;28;20245;-66
2023/07/22 07:43:25;;;;;;;4.27;1.53;;;16.30;99.90;;;;;;5073461;28;20329;-66
2023/07/22 07:46:12;;;;;;;1.77;1.30;;;16.40;99.90;;;;;;5074322;28;20197;-66
2023/07/22 07:48:39;;;;;;;1.77;1.10;;;16.50;99.90;;;;;;5081379;28;20190;-67
2023/07/22 07:51:06;;;;;;;1.17;1.00;;;16.70;99.90;;;;;;5066361;28;20245;-66
2023/07/22 07:53:32;;;;;;;1.63;1.20;;;16.60;99.90;;;;;;5081634;28;20284;-67
2023/07/22 07:56:00;;;;;;;1.40;1.10;;;16.60;99.90;;;;;;5055796;28;20236;-66
2023/07/22 07:58:27;;;;;;;3.13;1.53;;;16.50;99.90;;;;;;5072805;28;20255;-66
2023/07/22 08:00:54;;;;;;;1.10;1.00;;;16.50;99.90;;;;;;5074795;28;20582;-66
2023/07/22 08:03:21;;;;;;;4.40;1.10;;;16.60;99.90;;;;;;5074519;28;20227;-66
2023/07/22 08:05:48;;;;;;;1.07;0.93;;;16.60;99.90;;;;;;5075262;28;20226;-67
2023/07/22 08:08:15;;;;;;;1.33;0.70;;;16.70;99.90;;;;;;5078670;28;20197;-67
2023/07/22 08:10:43;;;;;;;0.90;0.73;;;16.80;99.90;;;;;;5063442;28;20222;-66
2023/07/22 08:13:11;;;;;;;3.00;0.93;;;16.70;99.90;;;;;;5053429;28;20194;-66
2023/07/22 08:15:38;;;;;;;1.33;0.90;;;16.80;99.90;;;;;;5080254;28;20210;-66
2023/07/22 08:18:04;;;;;;;2.07;0.87;;;16.90;99.90;;;;;;5069633;28;20198;-66
2023/07/22 08:20:31;;;;;;;2.27;0.90;;;17.00;99.90;;;;;;5070837;28;20222;-67
2023/07/22 08:22:58;;;;;;;4.13;1.40;;;17.00;99.90;;;;;;5076067;28;20194;-67
2023/07/22 08:25:25;;;;;;;1.57;1.07;;;17.20;99.90;;;;;;5069927;28;20398;-67
2023/07/22 08:27:52;;;;;;;2.00;0.93;;;17.30;99.90;;;;;;5058811;28;20759;-66
2023/07/22 08:30:21;;;;;;;2.70;1.10;;;17.40;99.90;;;;;;5077848;28;20217;-67
2023/07/22 08:32:48;;;;;;;1.10;0.90;;;17.50;99.90;;;;;;5072210;28;20193;-66
2023/07/22 08:35:17;;;;;;;2.53;1.00;;;17.70;99.90;;;;;;5076167;28;20194;-66
2023/07/22 08:37:43;;;;;;;1.27;0.93;;;17.70;99.90;;;;;;5064916;28;20284;-66
2023/07/22 08:40:12;;;;;;;1.40;0.93;;;17.70;99.90;;;;;;5069279;28;20234;-66
2023/07/22 08:42:39;;;;;;;3.17;1.10;;;17.60;99.90;;;;;;5076270;28;20572;-66
2023/07/22 08:45:10;;;;;;;1.50;0.93;;;17.60;99.90;;;;;;5059558;28;20202;-66
2023/07/22 08:47:43;;;;;;;3.37;0.90;;;17.60;99.90;;;;;;5080045;28;20295;-67
2023/07/22 08:50:11;;;;;;;1.20;0.83;;;17.70;99.90;;;;;;5065939;28;20274;-67
2023/07/22 08:52:39;;;;;;;2.13;1.30;;;17.80;99.90;;;;;;5063874;28;20198;-67
2023/07/22 08:55:10;;;;;;;1.97;1.10;;;17.80;99.90;;;;;;5073431;28;20190;-66
2023/07/22 08:57:39;;;;;;;2.10;0.60;;;17.70;99.90;;;;;;5070956;28;20229;-67
2023/07/22 09:00:09;;;;;;;0.90;0.80;;;17.60;99.90;;;;;;5058595;28;20570;-66
2023/07/22 09:02:38;;;;;;;1.90;0.97;;;17.70;99.90;;;;;;5074867;28;20210;-66
2023/07/22 09:05:06;;;;;;;1.90;0.80;;;17.70;99.90;;;;;;5065207;28;20202;-66
2023/07/22 09:07:34;;;;;;;1.30;0.90;;;17.80;99.90;;;;;;5063577;28;20659;-66
2023/07/22 09:10:03;;;;;;;3.73;0.83;;;17.90;99.90;;;;;;5076291;28;20836;-66
2023/07/22 09:12:31;;;;;;;1.97;1.63;;;17.90;99.90;;;;;;5095164;28;20658;-66
2023/07/22 09:14:58;;;;;;;3.00;0.80;;;17.80;99.90;;;;;;5067306;28;20222;-66
2023/07/22 09:17:25;;;;;;;0.93;0.73;;;17.70;99.90;;;;;;5072325;28;20259;-66
2023/07/22 09:19:54;;;;;;;1.57;0.77;;;17.80;99.90;;;;;;5061226;28;20904;-66
2023/07/22 09:22:27;;;;;;;1.87;0.70;;;17.90;99.90;;;;;;5055039;28;20431;-67
2023/07/22 09:24:53;;;;;;;0.97;0.70;;;17.90;99.90;;;;;;5078424;28;20293;-66
2023/07/22 09:27:34;;;;;;;1.00;0.70;;;17.90;99.90;;;;;;5077892;28;20637;-66
2023/07/22 09:30:01;;;;;;;0.67;0.60;;;17.90;99.90;;;;;;5057839;28;20225;-66
2023/07/22 09:32:36;;;;;;;2.50;0.63;;;17.80;99.90;;;;;;5074811;28;20750;-66
2023/07/22 09:35:07;;;;;;;0.60;0.60;;;17.90;99.90;;;;;;5067814;28;20201;-66
2023/07/22 09:37:38;;;;;;;1.73;0.83;;;18.00;99.90;;;;;;5068938;28;20263;-66
2023/07/22 09:40:15;;;;;;;0.93;0.70;;;18.10;99.90;;;;;;5067780;28;20228;-66
2023/07/22 09:42:45;;;;;;;1.20;0.90;;;18.20;99.90;;;;;;5077791;28;20625;-67
2023/07/22 09:45:12;;;;;;;2.03;0.50;;;18.30;99.90;;;;;;5075882;28;20182;-66
2023/07/22 09:47:43;;;;;;;0.60;0.60;;;18.50;99.90;;;;;;5055507;28;20205;-66
2023/07/22 09:50:16;;;;;;;2.43;0.80;;;18.70;99.90;;;;;;5061657;28;20449;-67
2023/07/22 09:52:48;;;;;;;3.17;1.03;;;18.60;99.90;;;;;;5066965;28;20208;-67
2023/07/22 09:55:20;;;;;;;2.63;0.80;;;18.70;99.90;;;;;;5068145;28;20282;-66
2023/07/22 09:57:50;;;;;;;0.70;0.70;;;18.70;99.90;;;;;;5075769;28;20664;-67
2023/07/22 10:00:19;;;;;;;1.37;0.87;;;18.60;99.90;;;;;;5073789;28;20225;-67
2023/07/22 10:02:49;;;;;;;1.13;0.90;;;18.40;99.90;;;;;;5051651;28;20205;-67
2023/07/22 10:05:18;;;;;;;1.50;0.70;;;18.40;99.90;;;;;;5075374;28;20261;-67
2023/07/22 10:07:47;;;;;;;1.80;0.97;;;18.60;99.90;;;;;;5070170;28;20209;-66
2023/07/22 10:10:17;;;;;;;0.73;0.70;;;18.70;99.90;;;;;;5063249;28;20506;-67
2023/07/22 10:12:44;;;;;;;1.07;0.60;;;18.80;99.90;;;;;;5081610;28;20254;-67
2023/07/22 10:15:13;;;;;;;0.70;0.60;;;18.80;99.90;;;;;;5069497;28;20178;-67
2023/07/22 10:17:41;;;;;;;0.60;0.60;;;18.80;99.90;;;;;;5072517;28;20255;-66
2023/07/22 10:20:14;;;;;;;0.73;0.70;;;18.70;99.90;;;;;;5057092;28;20748;-66
2023/07/22 10:22:44;;;;;;;1.20;0.77;;;18.50;99.90;;;;;;5070547;28;20201;-67
2023/07/22 10:25:12;;;;;;;1.30;1.20;;;18.40;99.90;;;;;;5068816;28;20194;-67
2023/07/22 10:27:41;;;;;;;0.83;0.67;;;18.40;99.90;;;;;;5076597;28;20248;-67
2023/07/22 10:30:09;;;;;;;1.23;0.83;;;18.50;99.90;;;;;;5068111;28;20291;-67
2023/07/22 10:32:37;;;;;;;1.60;1.00;;;18.40;99.90;;;;;;5072372;28;20195;-68
2023/07/22 10:35:05;;;;;;;1.10;0.60;;;18.50;99.90;;;;;;5078355;28;20191;-66
2023/07/22 10:37:32;;;;;;;0.90;0.80;;;18.50;99.90;;;;;;5078522;28;20255;-67
2023/07/22 10:40:18;;;;;;;2.37;0.80;;;18.50;99.90;;;;;;5059338;28;20306;-67
2023/07/22 10:42:53;;;;;;;0.97;0.87;;;18.60;99.90;;;;;;5072930;28;20673;-67
2023/07/22 10:45:30;;;;;;;1.83;0.90;;;18.70;99.90;;;;;;5070672;28;20274;-67
2023/07/22 10:48:06;;;;;;;1.23;1.13;;;18.80;99.90;;;;;;5076516;28;20190;-65
2023/07/22 10:50:40;;;;;;;1.70;1.00;;;18.90;99.90;;;;;;5060263;28;20222;-66
2023/07/22 10:53:07;;;;;;;1.87;1.30;;;18.90;99.90;;;;;;5066788;28;20528;-65
2023/07/22 10:56:07;;;;;;;2.50;1.00;;;19.10;99.90;;;;;;5068885;28;21503;-66
2023/07/22 10:58:55;;;;;;;2.90;1.10;;;19.30;99.90;;;;;;5072550;28;20809;-66
2023/07/22 11:01:25;;;;;;;1.63;1.27;;;19.30;99.90;;;;;;5077393;28;20225;-68
2023/07/22 11:04:14;;;;;;;1.20;1.10;;;19.50;99.90;;;;;;5082292;28;20251;-66
2023/07/22 11:06:54;;;;;;;1.10;1.00;;;19.60;99.90;;;;;;5065002;28;20260;-67
2023/07/22 11:09:38;;;;;;;1.27;1.07;;;19.70;99.90;;;;;;5069112;28;20228;-67
2023/07/22 11:12:10;;;;;;;1.07;0.97;;;19.70;99.90;;;;;;5063841;28;20198;-67
2023/07/22 11:14:40;;;;;;;1.20;1.10;;;19.60;99.90;;;;;;5082301;28;20226;-68
2023/07/22 11:17:09;;;;;;;1.20;1.10;;;19.50;99.90;;;;;;5078660;28;20197;-66
2023/07/22 11:19:36;;;;;;;1.67;1.30;;;19.60;99.90;;;;;;5081672;28;20618;-68
2023/07/22 11:22:03;;;;;;;1.57;1.47;;;19.80;99.80;;;;;;5061076;28;20305;-65
2023/07/22 11:24:30;;;;;;;1.80;1.40;;;19.70;99.50;;;;;;5067743;28;20201;-66
2023/07/22 11:26:57;;;;;;;1.30;1.20;;;19.80;99.50;;;;;;5063343;28;20201;-66
2023/07/22 11:29:25;;;;;;;1.40;1.30;;;19.90;99.80;;;;;;5076399;28;20198;-66
2023/07/22 11:31:52;;;;;;;1.80;1.63;;;19.90;99.90;;;;;;5070817;28;20226;-66
2023/07/22 11:34:21;;;;;;;1.50;1.40;;;20.00;99.70;;;;;;5078085;28;20202;-66
2023/07/22 11:36:48;;;;;;;2.63;1.80;;;20.00;99.60;;;;;;5060407;28;20206;-66
2023/07/22 11:39:16;;;;;;;1.63;1.53;;;20.00;99.40;;;;;;5071218;28;20448;-66
2023/07/22 11:41:44;;;;;;;1.97;1.33;;;20.00;99.50;;;;;;5070951;28;20626;-66
2023/07/22 11:44:13;;;;;;;1.67;1.57;;;20.10;99.10;;;;;;5069690;28;20247;-66
2023/07/22 11:46:53;;;;;;;1.67;1.50;;;20.10;99.20;;;;;;5083087;28;20190;-67
2023/07/22 11:49:28;;;;;;;2.10;1.90;;;20.30;99.30;;;;;;5075685;28;20194;-67
2023/07/22 11:51:57;;;;;;;1.97;1.70;;;20.40;99.00;;;;;;5055028;28;20599;-67
2023/07/22 11:54:24;;;;;;;3.20;2.10;;;20.60;99.40;;;;;;5072891;28;22326;-67
2023/07/22 11:56:51;;;;;;;2.27;2.07;;;20.60;98.70;;;;;;5071552;28;20681;-67
2023/07/22 11:59:18;;;;;;;2.58;2.38;;;20.60;98.50;;;;;;5070087;28;20198;-67
2023/07/22 12:01:46;;;;;;;3.47;2.72;;;20.70;97.80;;;;;;5082103;28;20236;-67
2023/07/22 12:04:15;;;;;;;3.27;2.97;;;20.80;97.70;;;;;;5066010;28;20273;-67
2023/07/22 12:06:42;;;;;;;2.40;2.20;;;20.70;97.10;;;;;;5069853;28;20203;-67
2023/07/22 12:09:10;;;;;;;3.38;2.53;;;20.50;97.30;;;;;;5055926;28;20718;-67
2023/07/22 12:11:37;;;;;;;2.83;2.47;;;20.40;97.60;;;;;;5071695;28;20210;-67
2023/07/22 12:14:11;;;;;;;3.97;2.42;;;20.10;97.80;;;;;;5070773;28;20677;-67
2023/07/22 12:16:40;;;;;;;2.47;2.17;;;20.10;98.10;;;;;;5081715;28;20251;-67
2023/07/22 12:19:08;;;;;;;2.30;2.10;;;20.00;98.30;;;;;;5063063;28;20259;-67
2023/07/22 12:21:36;;;;;;;4.23;2.60;;;19.90;98.20;;;;;;5072496;28;20686;-67
2023/07/22 12:24:04;;;;;;;3.90;2.53;;;19.90;98.30;;;;;;5060350;28;20194;-67
2023/07/22 12:26:31;;;;;;;3.23;2.37;;;19.90;98.70;;;;;;5081647;28;20221;-67
2023/07/22 12:28:59;;;;;;;2.63;2.42;;;19.90;98.80;;;;;;5071330;28;20293;-67
2023/07/22 12:31:26;;;;;;;2.80;2.55;;;20.00;98.90;;;;;;5072661;28;20297;-67
2023/07/22 12:33:53;;;;;;;3.53;2.53;;;19.90;98.90;;;;;;5065997;28;20210;-67
2023/07/22 12:36:19;;;;;;;2.90;2.67;;;19.80;98.90;;;;;;5073324;28;20251;-67
2023/07/22 12:38:48;;;;;;;3.40;2.73;;;19.70;98.70;;;;;;5063539;28;20209;-67
2023/07/22 12:41:14;;;;;;;2.80;2.60;;;19.60;98.70;;;;;;5076114;28;20206;-67
2023/07/22 12:43:41;;;;;;;4.50;3.33;;;19.50;99.20;;;;;;5071782;28;20202;-67
2023/07/22 12:46:08;;;;;;;6.17;3.93;;;19.40;99.90;;;;;;5065548;28;20717;-68
2023/07/22 12:48:35;;;;;;;6.00;4.10;;;19.10;99.90;;;;;;5075438;28;20576;-68
2023/07/22 12:51:02;;;;;;;4.67;4.27;;;18.50;99.90;;;;;;5070999;28;20213;-67